Maldives Meteorological Service

SYNOP

Station Code SYNOP
43555
AAXX 20064 43555 11459 10713 10305 20218 30120 40122 60001 70500 81101 333 58011 81819=
43533
AAXX 20064 43533 11457 29902 10298 20244 30121 40123 60001 70500 82200 333 58009 82818=
43577
AAXX 20064 43577 12459 40208 10312 20248 30115 40117 60001 81242 333 58011 81818 84078=
43588
AAXX 20064 43588 11459 70505 10301 20259 30110 40111 60001 70522 82238 333 58008 82818 87276=
43599
AAXX 20064 43599 11459 70505 10306 20248 30112 40114 69951 70182 82232 333 58011 82817 83361 86076=
Last Updated : 2018-02-20 11:02:27